Elbow, Canada
Current Conditions -  °F | °C
As of 8:00 AM on Wednesday 22 Oct 2014 (Local Time) from CYMJ Reporting Station
Broken Clouds Broken Clouds  
Wind Chill:   Ceiling: 14000
Heat Index:   Visibility: 15mi
Dew Point:   Wind: 10mph
Humidity: 93%   Direction: 310°NW
Pressure: 29.68"   Gusts: NA
Location:  51.12°N, 106.6°W
Report Text: CYMJ 221400Z 31009KT 15SM SCT080 BKN140 08/07 A2968 RMK AC3AC2ACC ASOCTD SH SE-NW SLP057
Loading
Personal Weather Stations






























Interactive Weather Map
Tropical Storm Tracking
New forecast layout! Learn more

10-Day Weather Forecast

Advertisements
Track Severe Weather on mobile